TimeEST,TemperatureF,Dew PointF,Humidity,Sea Level PressureIn,VisibilityMPH,Wind Direction,Wind SpeedMPH,Gust SpeedMPH,PrecipitationIn,Events,Conditions,WindDirDegrees,DateUTC
12:35 AM,19.4,8.6,63,30.09,10.0,WNW,17.3,27.6,N/A,,Mostly Cloudy,300,2013-01-03 05:35:00
1:15 AM,17.6,6.8,63,30.09,10.0,WNW,16.1,24.2,N/A,,Partly Cloudy,300,2013-01-03 06:15:00
2:15 AM,17.6,8.6,68,30.11,10.0,NW,15.0,23.0,N/A,,Mostly Cloudy,310,2013-01-03 07:15:00
2:35 AM,17.6,10.4,73,30.10,10.0,NW,17.3,20.7,N/A,,Mostly Cloudy,320,2013-01-03 07:35:00
3:15 AM,17.6,10.4,73,30.10,10.0,NW,17.3,20.7,N/A,,Overcast,310,2013-01-03 08:15:00
4:35 AM,15.8,6.8,68,30.10,10.0,NW,15.0,20.7,N/A,,Mostly Cloudy,310,2013-01-03 09:35:00
4:55 AM,17.6,10.4,73,30.10,10.0,NW,15.0,20.7,N/A,,Mostly Cloudy,320,2013-01-03 09:55:00
5:35 AM,17.6,12.2,79,30.09,10.0,NW,12.7,18.4,N/A,,Overcast,320,2013-01-03 10:35:00
5:55 AM,17.6,12.2,79,30.10,10.0,NW,10.4,18.4,N/A,,Overcast,320,2013-01-03 10:55:00
6:15 AM,17.6,12.2,79,30.10,10.0,NW,12.7,18.4,N/A,,Overcast,310,2013-01-03 11:15:00
6:35 AM,17.6,15.8,93,30.10,10.0,NW,11.5,16.1,N/A,,Overcast,320,2013-01-03 11:35:00
6:55 AM,17.6,12.2,79,30.11,10.0,NW,10.4,17.3,N/A,,Overcast,320,2013-01-03 11:55:00
7:15 AM,17.6,10.4,73,30.11,10.0,NW,8.1,-,N/A,,Overcast,320,2013-01-03 12:15:00
8:35 AM,17.6,15.8,93,30.12,5.0,NW,9.2,-,N/A,,Overcast,320,2013-01-03 13:35:00
9:15 AM,19.4,12.2,74,30.12,10.0,NW,6.9,-,N/A,,Overcast,320,2013-01-03 14:15:00
9:35 AM,19.4,15.8,86,30.12,8.0,NNW,3.5,-,N/A,,Overcast,330,2013-01-03 14:35:00
9:55 AM,19.4,15.8,86,30.12,9.0,NNW,9.2,-,N/A,,Overcast,330,2013-01-03 14:55:00
10:35 AM,19.4,14.0,80,30.11,9.0,WNW,9.2,-,N/A,,Overcast,290,2013-01-03 15:35:00
10:55 AM,19.4,12.2,74,30.10,10.0,West,8.1,-,N/A,,Overcast,280,2013-01-03 15:55:00
11:15 AM,19.4,12.2,74,30.09,10.0,WNW,8.1,-,N/A,,Overcast,300,2013-01-03 16:15:00
11:55 AM,21.2,12.2,68,30.08,10.0,WNW,10.4,-,N/A,,Mostly Cloudy,290,2013-01-03 16:55:00
12:15 PM,21.2,14.0,74,30.07,10.0,WNW,10.4,-,N/A,,Mostly Cloudy,290,2013-01-03 17:15:00
12:35 PM,21.2,12.2,68,30.06,10.0,West,10.4,-,N/A,,Scattered Clouds,270,2013-01-03 17:35:00
12:55 PM,21.2,10.4,63,30.06,10.0,West,10.4,16.1,N/A,,Clear,280,2013-01-03 17:55:00
1:15 PM,21.2,10.4,63,30.05,10.0,West,6.9,-,N/A,,Clear,270,2013-01-03 18:15:00
1:35 PM,21.2,10.4,63,30.04,10.0,West,10.4,16.1,N/A,,Clear,270,2013-01-03 18:35:00
1:55 PM,23.0,8.6,54,30.04,10.0,WNW,10.4,-,N/A,,Clear,290,2013-01-03 18:55:00
3:15 PM,24.8,8.6,50,30.04,10.0,West,10.4,-,N/A,,Clear,280,2013-01-03 20:15:00
3:35 PM,24.8,8.6,50,30.03,10.0,West,11.5,-,N/A,,Clear,270,2013-01-03 20:35:00
4:15 PM,24.8,5.0,43,30.03,10.0,West,12.7,16.1,N/A,,Clear,280,2013-01-03 21:15:00
5:35 PM,24.8,3.2,40,30.03,10.0,West,13.8,19.6,N/A,,Clear,270,2013-01-03 22:35:00
6:35 PM,26.6,3.2,37,30.03,10.0,West,15.0,20.7,N/A,,Clear,280,2013-01-03 23:35:00
6:55 PM,26.6,5.0,40,30.04,10.0,WNW,18.4,23.0,N/A,,Clear,300,2013-01-03 23:55:00
7:55 PM,26.6,8.6,47,30.05,10.0,WNW,15.0,24.2,N/A,,Mostly Cloudy,290,2013-01-04 00:55:00
8:15 PM,26.6,8.6,47,30.05,10.0,West,15.0,23.0,N/A,,Scattered Clouds,280,2013-01-04 01:15:00
8:55 PM,26.6,10.4,51,30.05,10.0,West,13.8,20.7,N/A,,Overcast,280,2013-01-04 01:55:00
9:15 PM,26.6,12.2,55,30.04,10.0,West,15.0,20.7,N/A,,Mostly Cloudy,280,2013-01-04 02:15:00
9:35 PM,26.6,12.2,55,30.05,10.0,West,18.4,23.0,N/A,,Partly Cloudy,280,2013-01-04 02:35:00
9:55 PM,26.6,14.0,59,30.05,10.0,WNW,16.1,24.2,N/A,,Partly Cloudy,290,2013-01-04 02:55:00
10:15 PM,26.6,15.8,64,30.05,10.0,WNW,20.7,25.3,N/A,,Clear,290,2013-01-04 03:15:00
10:55 PM,26.6,15.8,64,30.05,10.0,West,13.8,-,N/A,,Mostly Cloudy,280,2013-01-04 03:55:00
11:15 PM,28.4,15.8,59,30.03,10.0,West,13.8,19.6,N/A,,Scattered Clouds,280,2013-01-04 04:15:00
11:55 PM,26.6,17.6,69,30.01,10.0,West,9.2,-,N/A,,Partly Cloudy,270,2013-01-04 04:55:00